Aviation Digital Data Service (ADDS)

Output produced by METARs form (0049 UTC 18 November 2017)
found at http://aviationweather.gov/adds/metars/
 
KHUL 172340Z 1800/1824 32013G22KT P6SM BKN035 
     FM180400 33012G22KT P6SM SCT045 
     FM180700 33011KT P6SM SCT150 
     FM180900 32010KT P6SM SCT200 BKN250 
     FM181800 VRB03KT P6SM BKN090 OVC180 
     FM182200 15005KT P6SM BKN080 OVC150